Sacramento, CA (94269)

2:19 PM PDT on August 20, 2014 (GMT -0700)
MIDTOWN | Change Station
CLOSE
Current Station
Personal Weather Station
Location: SACRAMENTO, CA
Elevation: 24 ft
Nearby Weather Stations

Elev 24 ft 38.57 °N, 121.48 °W | Updated 1 second ago

Clear
Clear
75.2 °F
Feels Like 78 °F
N
4.5
Wind Variable Wind from South
Gusts 4.9 mph

Today
High -- | Low -- °F
--% Chance of Precip.
Yesterday
High -- | Low -- °F
Precip. -- in
6:24 AM 7:53 PM
Waning Crescent, 19% visible
Pressure 29.88 in
Visibility 10.0 miles
Clouds Clear
Heat Index 78 °F
Dew Point 59 °F
Humidity 57%
Rainfall 0.00 in
Snow Depth Not available.
UV 2.0 out of 12
Pollen 6.20 out of 12
Ozone Good
PM2.5 Good
Flu Activity Not available.
METAR KSAC 202053Z AUTO 20011G18KT 10SM CLR 24/14 A2988 RMK AO2 SLP117 6//// T02440139 58007 TSNO

More Conditions Fewer Conditions

Pressure 29.88 in
Visibility 10.0 miles
Clouds Clear
Heat Index 78 °F
Dew Point 59 °F
Humidity 57%
Rainfall 0.00 in
Snow Depth Not available.
UV 2.0 out of 12
Pollen 6.20 out of 12
Ozone Good
PM2.5 Good
Flu Activity Not available.
METAR KSAC 202053Z AUTO 20011G18KT 10SM CLR 24/14 A2988 RMK AO2 SLP117 6//// T02440139 58007 TSNO

More Conditions Fewer Conditions

10-Day Weather Forecast

Almanac

Astronomy

Aug. 20, 2014 Rise Set
Actual Time 6:24 AM PDT 7:53 PM PDT
Civil Twilight 5:56 AM PDT 8:21 PM PDT
Nautical Twilight 5:23 AM PDT 8:54 PM PDT
Astronomical Twilight 4:47 AM PDT 9:29 PM PDT
Moon 2:10 AM PDT 4:41 PM PDT
Length of Visible Light 14h 24m
Length of Day
13h 28m
Tomorrow will be 2m 17s shorter.
Waning Crescent, 19% of the Moon is Illuminated
Today
Waning Crescent
Aug 25
New
Sep 2
First Quarter
Sep 8
Full
Sep 15
Last Quarter

Today's Extremes

State Highs State Lows

Community

WunderPhotos

Upload Photos

1,745,762 photos uploaded!

WunderBlogs® & News

Nearby

Air Quality

  Air Quality AQ Index Pollutant
Yesterday Good
PM10
Yesterday Good
OZONE
Current Good
PM2.5
Current Good
OZONE
Wednesday Moderate
OZONE
Thursday Moderate
OZONE
Friday Good
OZONE
Saturday Good
OZONE
Sunday Moderate
OZONE
Monday Good
OZONE

Snow Depth

Station Depth Elevation
CSS Lab 1 in 6900 ft
Leavitt Meadows 0 in 7200 ft
Summit Meadow 0 in 9122 ft
Adin Mountain 0 in 6200 ft

Earthquake Activity

City Distance Mag. Time & Date
Mariposa, California 114 miles 2.5 4:54 AM PDT
2014-08-14
Mariposa, California 115 miles 2.7 3:31 AM PDT
2014-08-14
The Geysers, California 69 miles 2.6 8:55 PM PDT
2014-08-13
Upper Lake, California 92 miles 2.9 3:32 PM PDT
2014-08-13
Minimum magnitude displayed is 2.5.

Coastal Water Temperatures

Place Temperature
San Francisco, CA 64.0 °F
Richmond, CA 66.0 °F
Port Chicago, CA 69.1 °F

Nearby Weather Stations